createdAt,value
2019-05-30T00:01:28.707Z,4.15
2019-05-30T00:03:58.867Z,4.65
2019-05-30T00:06:29.065Z,4.95
2019-05-30T00:08:59.112Z,4.75
2019-05-30T00:11:30.257Z,4.40
2019-05-30T00:14:00.734Z,4.58
2019-05-30T00:16:30.834Z,4.53
2019-05-30T00:19:00.943Z,4.55
2019-05-30T00:21:30.767Z,5.17
2019-05-30T00:24:01.994Z,4.78
2019-05-30T00:26:32.028Z,4.95
2019-05-30T00:29:02.583Z,4.42
2019-05-30T00:31:32.462Z,5.17
2019-05-30T00:34:02.515Z,4.87
2019-05-30T00:36:32.839Z,4.97
2019-05-30T00:39:03.902Z,5.00
2019-05-30T00:41:34.173Z,4.75
2019-05-30T00:44:04.388Z,5.22
2019-05-30T00:46:34.655Z,5.10
2019-05-30T00:49:04.723Z,4.90
2019-05-30T00:51:35.572Z,5.37
2019-05-30T00:54:06.982Z,5.03
2019-05-30T00:56:37.014Z,5.10
2019-05-30T00:59:07.033Z,4.87
2019-05-30T01:01:36.881Z,5.03
2019-05-30T01:04:07.169Z,4.83
2019-05-30T01:06:37.257Z,5.58
2019-05-30T01:09:07.493Z,5.10
2019-05-30T01:11:37.673Z,5.10
2019-05-30T01:14:07.726Z,4.75
2019-05-30T01:16:41.862Z,4.78
2019-05-30T01:19:10.254Z,5.10
2019-05-30T01:21:40.646Z,4.55
2019-05-30T01:24:10.650Z,5.10
2019-05-30T01:26:40.457Z,4.75
2019-05-30T01:29:10.507Z,4.90
2019-05-30T01:31:40.489Z,5.25
2019-05-30T01:34:10.356Z,5.78
2019-05-30T01:36:40.466Z,4.87
2019-05-30T01:39:10.519Z,5.50
2019-05-30T01:41:40.326Z,5.05
2019-05-30T01:44:10.126Z,5.22
2019-05-30T01:46:39.923Z,4.75
2019-05-30T01:49:10.935Z,4.85
2019-05-30T01:51:40.916Z,5.00
2019-05-30T01:54:10.787Z,4.85
2019-05-30T01:56:40.847Z,4.42
2019-05-30T01:59:10.915Z,5.05
2019-05-30T02:01:40.980Z,4.67
2019-05-30T02:04:10.792Z,5.10
2019-05-30T02:06:40.884Z,5.37
2019-05-30T02:09:11.439Z,4.50
2019-05-30T02:11:41.593Z,4.37
2019-05-30T02:14:11.652Z,5.22
2019-05-30T02:16:41.458Z,4.35
2019-05-30T02:19:11.509Z,4.22
2019-05-30T02:21:41.552Z,5.05
2019-05-30T02:24:12.187Z,4.10
2019-05-30T02:26:42.188Z,4.50
2019-05-30T02:29:12.956Z,4.03
2019-05-30T02:31:42.769Z,4.65
2019-05-30T02:34:12.575Z,4.97
2019-05-30T02:36:42.371Z,4.53
2019-05-30T02:39:12.391Z,4.22
2019-05-30T02:41:43.363Z,4.30
2019-05-30T02:44:13.228Z,4.22
2019-05-30T02:46:44.256Z,3.83
2019-05-30T02:49:14.299Z,4.03
2019-05-30T02:51:44.128Z,4.10
2019-05-30T02:54:13.940Z,4.10
2019-05-30T02:56:43.764Z,3.95
2019-05-30T02:59:13.998Z,4.15
2019-05-30T03:01:59.730Z,4.37
2019-05-30T03:04:15.343Z,4.62
2019-05-30T03:06:45.237Z,4.65
2019-05-30T03:09:15.335Z,4.55
2019-05-30T03:11:45.273Z,3.72
2019-05-30T03:14:19.048Z,4.00
2019-05-30T03:16:46.736Z,4.58
2019-05-30T03:19:16.866Z,3.95
2019-05-30T03:21:46.667Z,3.70
2019-05-30T03:24:16.460Z,3.80
2019-05-30T03:26:46.296Z,3.95
2019-05-30T03:29:16.333Z,3.70
2019-05-30T03:31:47.481Z,3.80
2019-05-30T03:34:26.956Z,3.60
2019-05-30T03:36:49.262Z,3.08
2019-05-30T03:39:19.317Z,3.30
2019-05-30T03:41:49.270Z,2.80
2019-05-30T03:44:19.333Z,3.75
2019-05-30T03:46:52.208Z,3.55
2019-05-30T03:49:25.081Z,3.12
2019-05-30T03:51:58.006Z,3.67
2019-05-30T03:54:28.495Z,4.00
2019-05-30T03:57:04.758Z,4.70
2019-05-30T03:59:41.008Z,5.83
2019-05-30T04:02:15.567Z,7.50
2019-05-30T04:05:03.578Z,6.47
2019-05-30T04:07:35.650Z,6.65
2019-05-30T04:10:09.255Z,6.55
2019-05-30T04:12:50.900Z,5.20
2019-05-30T04:15:32.110Z,5.35
2019-05-30T04:18:01.995Z,4.55
2019-05-30T04:20:32.483Z,4.37
2019-05-30T04:23:02.366Z,3.92
2019-05-30T04:25:32.171Z,3.10
2019-05-30T04:28:02.033Z,2.80
2019-05-30T04:30:32.096Z,2.80
2019-05-30T04:33:17.229Z,2.60
2019-05-30T04:35:33.414Z,3.22
2019-05-30T04:38:03.230Z,2.87
2019-05-30T04:40:33.042Z,2.83
2019-05-30T04:43:02.873Z,3.00
2019-05-30T04:45:32.672Z,2.72
2019-05-30T04:48:02.532Z,2.85
2019-05-30T04:50:32.629Z,2.30
2019-05-30T04:53:02.762Z,2.30
2019-05-30T04:55:32.555Z,2.42
2019-05-30T04:58:02.384Z,2.42
2019-05-30T05:00:32.282Z,2.42
2019-05-30T05:03:02.770Z,2.92
2019-05-30T05:05:32.835Z,2.17
2019-05-30T05:08:02.660Z,2.60
2019-05-30T05:10:32.636Z,2.50
2019-05-30T05:13:02.442Z,2.80
2019-05-30T05:15:32.530Z,2.80
2019-05-30T05:18:02.654Z,2.45
2019-05-30T05:20:35.941Z,2.62
2019-05-30T05:23:03.965Z,2.80
2019-05-30T05:25:34.034Z,3.00
2019-05-30T05:28:04.111Z,2.70
2019-05-30T05:30:34.240Z,3.05
2019-05-30T05:33:04.215Z,2.67
2019-05-30T05:35:34.290Z,2.87
2019-05-30T05:38:04.167Z,2.50
2019-05-30T05:40:34.074Z,2.90
2019-05-30T05:43:04.132Z,2.72
2019-05-30T05:45:34.208Z,2.72
2019-05-30T05:48:04.009Z,2.47
2019-05-30T05:50:33.894Z,2.85
2019-05-30T05:53:03.790Z,2.90
2019-05-30T05:55:33.865Z,2.75
2019-05-30T05:58:04.367Z,2.83
2019-05-30T06:00:34.312Z,2.85
2019-05-30T06:03:04.385Z,3.05
2019-05-30T06:05:34.222Z,3.12
2019-05-30T06:08:04.101Z,3.30
2019-05-30T06:10:34.005Z,3.55
2019-05-30T06:13:04.170Z,3.42
2019-05-30T06:15:34.287Z,3.77
2019-05-30T06:18:04.414Z,3.50
2019-05-30T06:20:34.478Z,3.27
2019-05-30T06:23:04.605Z,3.47
2019-05-30T06:25:34.417Z,3.77
2019-05-30T06:28:04.705Z,3.90
2019-05-30T06:30:34.509Z,3.12
2019-05-30T06:33:04.413Z,4.65
2019-05-30T06:35:34.375Z,3.70
2019-05-30T06:38:04.186Z,4.00
2019-05-30T06:40:34.008Z,4.20
2019-05-30T06:43:03.947Z,4.42
2019-05-30T06:45:33.772Z,4.58
2019-05-30T06:48:03.880Z,4.95
2019-05-30T06:50:34.030Z,5.00
2019-05-30T06:53:03.909Z,4.60
2019-05-30T06:55:34.054Z,5.17
2019-05-30T06:58:04.237Z,5.12
2019-05-30T07:00:34.446Z,5.47
2019-05-30T07:03:04.393Z,4.60
2019-05-30T07:05:35.111Z,4.70
2019-05-30T07:08:05.466Z,4.75
2019-05-30T07:10:35.602Z,4.10
2019-05-30T07:13:05.680Z,4.50
2019-05-30T07:15:35.560Z,4.80
2019-05-30T07:18:05.671Z,4.85
2019-05-30T07:20:35.734Z,4.50
2019-05-30T07:23:05.859Z,4.97
2019-05-30T07:25:35.660Z,4.58
2019-05-30T07:28:05.538Z,4.60
2019-05-30T07:30:35.830Z,4.50
2019-05-30T07:33:05.636Z,4.25
2019-05-30T07:35:35.689Z,4.15
2019-05-30T07:38:05.570Z,4.40
2019-05-30T07:40:35.383Z,4.35
2019-05-30T07:43:05.323Z,4.12
2019-05-30T07:45:35.277Z,3.98
2019-05-30T07:48:05.645Z,3.87
2019-05-30T07:50:35.740Z,4.40
2019-05-30T07:53:05.616Z,4.05
2019-05-30T07:55:35.439Z,4.35
2019-05-30T07:58:05.336Z,3.83
2019-05-30T08:00:35.605Z,4.10
2019-05-30T08:03:06.554Z,4.00
2019-05-30T08:05:36.360Z,3.95
2019-05-30T08:08:06.185Z,4.05
2019-05-30T08:10:36.125Z,3.30
2019-05-30T08:13:06.327Z,4.03
2019-05-30T08:15:42.916Z,3.70
2019-05-30T08:18:08.044Z,4.08
2019-05-30T08:20:38.099Z,3.55
2019-05-30T08:23:09.931Z,3.75
2019-05-30T08:25:39.669Z,3.30
2019-05-30T08:28:09.713Z,3.80
2019-05-30T08:30:39.866Z,3.95
2019-05-30T08:33:10.047Z,3.67
2019-05-30T08:35:49.180Z,3.45
2019-05-30T08:38:11.893Z,3.30
2019-05-30T08:40:41.719Z,3.22
2019-05-30T08:43:11.503Z,3.35
2019-05-30T08:45:41.575Z,3.42
2019-05-30T08:48:11.412Z,3.70
2019-05-30T08:50:44.302Z,3.70
2019-05-30T08:53:12.842Z,3.22
2019-05-30T08:55:43.871Z,4.10
2019-05-30T08:58:13.684Z,3.85
2019-05-30T09:00:43.483Z,4.35
2019-05-30T09:03:13.292Z,3.47
2019-05-30T09:05:59.291Z,3.50
2019-05-30T09:08:14.992Z,3.58
2019-05-30T09:10:46.396Z,4.20
2019-05-30T09:13:17.536Z,3.37
2019-05-30T09:15:47.594Z,3.72
2019-05-30T09:18:17.642Z,3.60
2019-05-30T09:20:47.525Z,3.62
2019-05-30T09:23:17.343Z,3.00
2019-05-30T09:25:49.380Z,3.90
2019-05-30T09:28:19.049Z,3.60
2019-05-30T09:30:48.860Z,4.15
2019-05-30T09:33:18.664Z,3.33
2019-05-30T09:35:49.099Z,3.10
2019-05-30T09:38:19.347Z,4.10
2019-05-30T09:40:49.626Z,3.47
2019-05-30T09:43:19.565Z,3.58
2019-05-30T09:45:50.134Z,3.37
2019-05-30T09:48:21.026Z,3.55
2019-05-30T09:50:51.131Z,3.15
2019-05-30T09:53:21.094Z,3.42
2019-05-30T09:55:51.609Z,4.67
2019-05-30T09:58:21.478Z,3.42
2019-05-30T10:00:52.282Z,3.45
2019-05-30T10:03:22.533Z,3.45
2019-05-30T10:05:52.731Z,3.25
2019-05-30T10:08:23.532Z,3.27
2019-05-30T10:10:53.645Z,3.87
2019-05-30T10:13:23.744Z,3.35
2019-05-30T10:15:53.578Z,4.05
2019-05-30T10:18:23.392Z,3.60
2019-05-30T10:20:53.650Z,3.87
2019-05-30T10:23:24.612Z,3.95
2019-05-30T10:25:54.442Z,3.55
2019-05-30T10:28:24.508Z,3.85
2019-05-30T10:30:57.800Z,4.47
2019-05-30T10:33:26.096Z,4.00
2019-05-30T10:35:57.045Z,3.87
2019-05-30T10:38:27.113Z,4.37
2019-05-30T10:40:56.919Z,3.92
2019-05-30T10:43:26.981Z,4.03
2019-05-30T10:45:57.533Z,4.75
2019-05-30T10:48:27.497Z,4.45
2019-05-30T10:50:57.547Z,4.47
2019-05-30T10:53:27.377Z,4.35
2019-05-30T10:55:57.325Z,4.67
2019-05-30T10:58:27.198Z,4.12
2019-05-30T11:00:58.122Z,4.15
2019-05-30T11:03:29.189Z,4.95
2019-05-30T11:06:04.995Z,4.37
2019-05-30T11:08:37.310Z,4.60
2019-05-30T11:11:07.171Z,4.80
2019-05-30T11:13:36.980Z,4.50
2019-05-30T11:16:06.993Z,4.53
2019-05-30T11:18:37.047Z,4.83
2019-05-30T11:21:06.868Z,5.28
2019-05-30T11:23:36.661Z,5.37
2019-05-30T11:26:06.548Z,4.72
2019-05-30T11:28:36.348Z,4.62
2019-05-30T11:31:06.213Z,4.67
2019-05-30T11:33:36.054Z,5.45
2019-05-30T11:36:06.115Z,4.33
2019-05-30T11:38:36.232Z,4.85
2019-05-30T11:41:06.048Z,5.28
2019-05-30T11:43:36.101Z,5.50
2019-05-30T11:46:05.905Z,5.37
2019-05-30T11:48:35.970Z,5.60
2019-05-30T11:51:06.102Z,5.15
2019-05-30T11:53:35.971Z,5.25
2019-05-30T11:56:06.039Z,4.85
2019-05-30T11:58:35.918Z,5.12
2019-05-30T12:01:06.032Z,5.17
2019-05-30T12:03:35.840Z,5.15
2019-05-30T12:06:05.710Z,5.00
2019-05-30T12:08:35.514Z,5.72
2019-05-30T12:11:05.328Z,6.80
2019-05-30T12:13:35.360Z,5.75
2019-05-30T12:16:05.215Z,5.78
2019-05-30T12:18:35.052Z,5.97
2019-05-30T12:21:05.012Z,6.05
2019-05-30T12:23:35.795Z,6.08
2019-05-30T12:26:05.874Z,6.35
2019-05-30T12:28:35.676Z,5.95
2019-05-30T12:31:06.780Z,6.35
2019-05-30T12:33:36.980Z,6.08
2019-05-30T12:36:07.156Z,6.08
2019-05-30T12:38:37.227Z,6.00
2019-05-30T12:41:07.403Z,6.95
2019-05-30T12:43:37.241Z,6.47
2019-05-30T12:46:07.384Z,6.22
2019-05-30T12:48:37.336Z,6.78
2019-05-30T12:51:07.229Z,6.75
2019-05-30T12:53:37.257Z,6.37
2019-05-30T12:56:07.228Z,7.10
2019-05-30T12:58:37.085Z,6.97
2019-05-30T13:01:07.167Z,7.20
2019-05-30T13:03:37.034Z,7.12
2019-05-30T13:06:07.562Z,6.55
2019-05-30T13:08:37.479Z,6.83
2019-05-30T13:11:07.300Z,6.85
2019-05-30T13:13:37.099Z,6.12
2019-05-30T13:16:08.840Z,6.20
2019-05-30T13:18:38.491Z,6.00
2019-05-30T13:21:08.727Z,6.37
2019-05-30T13:23:38.802Z,6.90
2019-05-30T13:26:08.946Z,6.42
2019-05-30T13:28:39.031Z,6.45
2019-05-30T13:31:08.876Z,6.50
2019-05-30T13:33:38.922Z,6.90
2019-05-30T13:36:09.003Z,6.20
2019-05-30T13:38:38.947Z,6.42
2019-05-30T13:41:08.996Z,6.17
2019-05-30T13:43:39.158Z,6.45
2019-05-30T13:46:09.068Z,6.87
2019-05-30T13:48:39.175Z,6.30
2019-05-30T13:51:09.144Z,6.70
2019-05-30T13:53:39.947Z,6.45
2019-05-30T13:56:09.946Z,7.03
2019-05-30T13:58:39.749Z,7.03
2019-05-30T14:01:12.386Z,6.40
2019-05-30T14:03:41.436Z,6.62
2019-05-30T14:06:11.428Z,6.42
2019-05-30T14:08:42.292Z,5.87
2019-05-30T14:11:13.094Z,5.65
2019-05-30T14:13:44.196Z,6.33
2019-05-30T14:16:13.994Z,6.47
2019-05-30T14:18:44.044Z,6.42
2019-05-30T14:21:13.858Z,5.60
2019-05-30T14:23:43.659Z,6.15
2019-05-30T14:26:13.712Z,6.00
2019-05-30T14:28:43.757Z,5.62
2019-05-30T14:31:13.800Z,5.75
2019-05-30T14:33:43.851Z,5.95
2019-05-30T14:36:14.742Z,5.95
2019-05-30T14:38:57.676Z,6.28
2019-05-30T14:41:17.500Z,6.10
2019-05-30T14:43:47.360Z,6.03
2019-05-30T14:46:17.162Z,6.35
2019-05-30T14:48:47.261Z,6.33
2019-05-30T14:51:17.247Z,6.28
2019-05-30T14:53:48.296Z,6.92
2019-05-30T14:56:18.114Z,6.03
2019-05-30T14:58:47.984Z,6.30
2019-05-30T15:01:17.852Z,6.70
2019-05-30T15:03:47.895Z,5.37
2019-05-30T15:06:17.997Z,5.75
2019-05-30T15:08:48.141Z,5.50
2019-05-30T15:11:18.263Z,5.80
2019-05-30T15:13:48.310Z,5.20
2019-05-30T15:16:18.114Z,5.42
2019-05-30T15:18:48.896Z,5.65
2019-05-30T15:21:18.754Z,5.62
2019-05-30T15:23:48.883Z,5.25
2019-05-30T15:26:18.949Z,4.92
2019-05-30T15:28:48.831Z,4.90
2019-05-30T15:31:18.713Z,5.33
2019-05-30T15:33:48.776Z,5.20
2019-05-30T15:36:18.587Z,4.87
2019-05-30T15:38:48.404Z,4.75
2019-05-30T15:41:18.206Z,4.47
2019-05-30T15:43:48.260Z,4.50
2019-05-30T15:46:18.127Z,4.33
2019-05-30T15:48:48.189Z,4.28
2019-05-30T15:51:18.863Z,4.15
2019-05-30T15:53:49.762Z,4.17
2019-05-30T15:56:19.585Z,4.55
2019-05-30T15:58:49.409Z,4.78
2019-05-30T16:01:20.155Z,4.45
2019-05-30T16:03:50.011Z,4.83
2019-05-30T16:06:20.817Z,5.60
2019-05-30T16:08:51.226Z,4.78
2019-05-30T16:11:21.321Z,5.35
2019-05-30T16:13:51.382Z,5.70
2019-05-30T16:16:36.146Z,5.30
2019-05-30T16:18:52.974Z,5.30
2019-05-30T16:21:23.105Z,5.85
2019-05-30T16:23:53.227Z,5.80
2019-05-30T16:26:23.038Z,5.50
2019-05-30T16:28:53.088Z,6.10
2019-05-30T16:31:23.142Z,6.22
2019-05-30T16:33:53.264Z,4.55
2019-05-30T16:36:23.370Z,4.42
2019-05-30T16:38:53.177Z,3.92
2019-05-30T16:41:22.985Z,4.15
2019-05-30T16:43:52.792Z,3.15
2019-05-30T16:46:22.783Z,3.30
2019-05-30T16:48:52.737Z,3.67
2019-05-30T16:51:23.577Z,3.45
2019-05-30T16:53:54.689Z,3.22
2019-05-30T16:56:25.645Z,3.83
2019-05-30T16:58:55.908Z,3.80
2019-05-30T17:01:26.084Z,3.60
2019-05-30T17:03:56.286Z,3.45
2019-05-30T17:06:27.685Z,3.58
2019-05-30T17:08:57.729Z,3.83
2019-05-30T17:11:27.800Z,3.50
2019-05-30T17:13:57.601Z,3.37
2019-05-30T17:16:27.660Z,3.70
2019-05-30T17:18:57.712Z,4.10
2019-05-30T17:21:27.743Z,3.62
2019-05-30T17:23:57.800Z,3.60
2019-05-30T17:26:27.617Z,4.00
2019-05-30T17:28:58.392Z,3.45
2019-05-30T17:31:28.689Z,3.67
2019-05-30T17:33:58.664Z,3.47
2019-05-30T17:36:28.524Z,3.75
2019-05-30T17:38:59.429Z,3.00
2019-05-30T17:41:29.551Z,3.58
2019-05-30T17:43:59.373Z,3.37
2019-05-30T17:46:30.066Z,3.70
2019-05-30T17:49:01.252Z,3.52
2019-05-30T17:51:32.177Z,3.40
2019-05-30T17:54:02.179Z,3.20
2019-05-30T17:56:33.208Z,3.10
2019-05-30T17:59:03.178Z,2.80
2019-05-30T18:01:33.229Z,3.05
2019-05-30T18:04:03.114Z,2.50
2019-05-30T18:06:32.917Z,2.70
2019-05-30T18:09:04.124Z,3.10
2019-05-30T18:11:34.419Z,2.85
2019-05-30T18:14:04.608Z,2.85
2019-05-30T18:16:34.423Z,3.05
2019-05-30T18:19:04.624Z,2.40
2019-05-30T18:21:34.697Z,2.72
2019-05-30T18:24:05.292Z,2.50
2019-05-30T18:26:35.097Z,3.10
2019-05-30T18:29:05.170Z,2.90
2019-05-30T18:31:35.045Z,2.40
2019-05-30T18:34:04.994Z,2.67
2019-05-30T18:36:34.825Z,2.87
2019-05-30T18:39:07.036Z,2.87
2019-05-30T18:41:36.932Z,2.50
2019-05-30T18:44:06.979Z,2.85
2019-05-30T18:46:38.698Z,2.65
2019-05-30T18:49:08.935Z,2.33
2019-05-30T18:51:38.772Z,2.45
2019-05-30T18:54:08.898Z,2.30
2019-05-30T18:56:38.961Z,2.33
2019-05-30T18:59:09.005Z,2.22
2019-05-30T19:01:38.918Z,2.20
2019-05-30T19:04:09.042Z,1.72
2019-05-30T19:06:39.121Z,1.70
2019-05-30T19:09:10.060Z,1.57
2019-05-30T19:11:40.042Z,1.70
2019-05-30T19:14:09.919Z,1.80
2019-05-30T19:16:39.711Z,2.00
2019-05-30T19:19:09.527Z,2.58
2019-05-30T19:21:39.471Z,2.67
2019-05-30T19:24:09.550Z,2.20
2019-05-30T19:26:39.452Z,2.00
2019-05-30T19:29:09.488Z,1.77
2019-05-30T19:31:39.462Z,1.98
2019-05-30T19:34:10.113Z,2.10
2019-05-30T19:36:40.259Z,2.02
2019-05-30T19:39:10.072Z,1.80
2019-05-30T19:41:52.611Z,2.00
2019-05-30T19:44:11.974Z,2.00
2019-05-30T19:46:41.813Z,1.98
2019-05-30T19:49:12.921Z,1.80
2019-05-30T19:51:43.820Z,2.15
2019-05-30T19:54:13.623Z,2.15
2019-05-30T19:56:43.475Z,2.22
2019-05-30T19:59:13.543Z,1.92
2019-05-30T20:01:43.454Z,2.22
2019-05-30T20:04:13.560Z,1.80
2019-05-30T20:06:43.649Z,2.12
2019-05-30T20:09:13.740Z,2.20
2019-05-30T20:11:43.560Z,1.92
2019-05-30T20:14:13.380Z,2.15
2019-05-30T20:16:43.278Z,2.67
2019-05-30T20:19:13.486Z,2.27
2019-05-30T20:21:43.375Z,2.15
2019-05-30T20:24:13.193Z,2.17
2019-05-30T20:26:43.066Z,2.12
2019-05-30T20:29:13.163Z,1.90
2019-05-30T20:31:43.632Z,1.90
2019-05-30T20:34:13.565Z,2.10
2019-05-30T20:36:44.754Z,1.98
2019-05-30T20:39:14.842Z,2.40
2019-05-30T20:41:44.948Z,1.55
2019-05-30T20:44:15.018Z,2.27
2019-05-30T20:46:45.159Z,1.92
2019-05-30T20:49:14.975Z,2.02
2019-05-30T20:51:44.802Z,2.00
2019-05-30T20:54:14.618Z,1.90
2019-05-30T20:56:48.614Z,1.77
2019-05-30T20:59:15.935Z,1.80
2019-05-30T21:01:46.018Z,1.75
2019-05-30T21:04:16.168Z,2.02
2019-05-30T21:06:47.169Z,2.08
2019-05-30T21:09:28.547Z,1.87
2019-05-30T21:11:51.025Z,1.98
2019-05-30T21:14:27.184Z,2.00
2019-05-30T21:16:56.506Z,2.10
2019-05-30T21:19:26.349Z,2.00
2019-05-30T21:21:56.194Z,2.30
2019-05-30T21:24:26.051Z,2.45
2019-05-30T21:26:56.103Z,2.17
2019-05-30T21:29:26.161Z,2.30
2019-05-30T21:31:56.046Z,2.10
2019-05-30T21:34:26.352Z,2.15
2019-05-30T21:36:56.505Z,2.12
2019-05-30T21:39:26.545Z,2.20
2019-05-30T21:41:56.369Z,2.00
2019-05-30T21:44:26.419Z,2.42
2019-05-30T21:46:56.494Z,1.90
2019-05-30T21:49:26.550Z,2.15
2019-05-30T21:51:56.484Z,2.52
2019-05-30T21:54:26.623Z,1.98
2019-05-30T21:56:56.510Z,1.80
2019-05-30T21:59:26.343Z,2.25
2019-05-30T22:01:57.551Z,2.30
2019-05-30T22:04:27.651Z,1.87
2019-05-30T22:06:57.534Z,1.85
2019-05-30T22:09:28.475Z,2.20
2019-05-30T22:11:58.294Z,1.90
2019-05-30T22:14:28.410Z,2.08
2019-05-30T22:16:58.289Z,2.25
2019-05-30T22:19:28.174Z,2.08
2019-05-30T22:21:58.027Z,2.22
2019-05-30T22:24:28.020Z,2.25
2019-05-30T22:26:57.828Z,2.47
2019-05-30T22:29:29.819Z,2.33
2019-05-30T22:31:59.703Z,2.17
2019-05-30T22:34:29.512Z,2.30
2019-05-30T22:36:59.561Z,2.05
2019-05-30T22:39:29.385Z,2.72
2019-05-30T22:41:59.286Z,2.52
2019-05-30T22:44:29.095Z,2.20
2019-05-30T22:46:58.903Z,2.40
2019-05-30T22:49:28.740Z,2.47
2019-05-30T22:51:58.562Z,2.20
2019-05-30T22:54:28.625Z,2.10
2019-05-30T22:57:01.286Z,2.52
2019-05-30T22:59:29.953Z,2.50
2019-05-30T23:01:59.844Z,2.80
2019-05-30T23:04:29.673Z,2.80
2019-05-30T23:06:59.792Z,2.35
2019-05-30T23:09:29.855Z,2.90
2019-05-30T23:11:59.683Z,3.10
2019-05-30T23:14:29.731Z,2.40
2019-05-30T23:16:59.555Z,2.62
2019-05-30T23:19:29.595Z,3.00
2019-05-30T23:22:00.392Z,2.80
2019-05-30T23:24:30.522Z,2.98
2019-05-30T23:27:00.398Z,2.80
2019-05-30T23:29:30.466Z,2.70
2019-05-30T23:32:00.304Z,2.90
2019-05-30T23:34:30.134Z,2.70
2019-05-30T23:37:00.258Z,3.05
2019-05-30T23:39:30.060Z,3.20
2019-05-30T23:42:00.166Z,2.60
2019-05-30T23:44:29.978Z,3.40
2019-05-30T23:46:59.860Z,3.17
2019-05-30T23:49:30.887Z,3.00
2019-05-30T23:52:00.991Z,3.20
2019-05-30T23:54:31.046Z,3.58
2019-05-30T23:57:00.927Z,3.58
2019-05-30T23:59:31.011Z,3.15
